sensor_id;sensor_type;location;lat;lon;timestamp;temperature;humidity
17174;DHT22;8702;48.130;-1.696;2022-07-19T00:00:26;33.40;51.60
17174;DHT22;8702;48.130;-1.696;2022-07-19T00:02:53;33.40;51.50
17174;DHT22;8702;48.130;-1.696;2022-07-19T00:05:20;33.40;51.50
17174;DHT22;8702;48.130;-1.696;2022-07-19T00:07:47;33.40;51.70
17174;DHT22;8702;48.130;-1.696;2022-07-19T00:10:16;33.40;51.60
17174;DHT22;8702;48.130;-1.696;2022-07-19T00:12:43;33.40;51.70
17174;DHT22;8702;48.130;-1.696;2022-07-19T00:15:14;33.40;51.70
17174;DHT22;8702;48.130;-1.696;2022-07-19T00:17:43;33.50;51.80
17174;DHT22;8702;48.130;-1.696;2022-07-19T00:20:12;33.50;51.70
17174;DHT22;8702;48.130;-1.696;2022-07-19T00:22:39;33.50;51.80
17174;DHT22;8702;48.130;-1.696;2022-07-19T00:25:07;33.40;51.80
17174;DHT22;8702;48.130;-1.696;2022-07-19T00:27:35;33.40;52.10
17174;DHT22;8702;48.130;-1.696;2022-07-19T00:30:03;33.40;51.90
17174;DHT22;8702;48.130;-1.696;2022-07-19T00:32:32;33.30;52.30
17174;DHT22;8702;48.130;-1.696;2022-07-19T00:35:00;33.10;52.30
17174;DHT22;8702;48.130;-1.696;2022-07-19T00:37:27;33.10;52.50
17174;DHT22;8702;48.130;-1.696;2022-07-19T00:39:54;33.10;52.40
17174;DHT22;8702;48.130;-1.696;2022-07-19T00:42:21;33.10;52.60
17174;DHT22;8702;48.130;-1.696;2022-07-19T00:44:48;33.10;52.60
17174;DHT22;8702;48.130;-1.696;2022-07-19T00:47:15;33.00;52.60
17174;DHT22;8702;48.130;-1.696;2022-07-19T00:49:43;33.00;52.60
17174;DHT22;8702;48.130;-1.696;2022-07-19T00:52:10;33.00;52.70
17174;DHT22;8702;48.130;-1.696;2022-07-19T00:54:41;33.00;52.80
17174;DHT22;8702;48.130;-1.696;2022-07-19T00:57:09;32.90;52.90
17174;DHT22;8702;48.130;-1.696;2022-07-19T00:59:37;32.80;52.80
17174;DHT22;8702;48.130;-1.696;2022-07-19T01:02:04;32.80;53.10
17174;DHT22;8702;48.130;-1.696;2022-07-19T01:04:31;32.70;53.10
17174;DHT22;8702;48.130;-1.696;2022-07-19T01:07:01;32.70;53.30
17174;DHT22;8702;48.130;-1.696;2022-07-19T01:09:28;32.70;53.20
17174;DHT22;8702;48.130;-1.696;2022-07-19T01:11:56;32.60;53.30
17174;DHT22;8702;48.130;-1.696;2022-07-19T01:14:23;32.60;53.50
17174;DHT22;8702;48.130;-1.696;2022-07-19T01:16:50;32.50;53.60
17174;DHT22;8702;48.130;-1.696;2022-07-19T01:19:17;32.50;53.60
17174;DHT22;8702;48.130;-1.696;2022-07-19T01:21:46;32.40;53.70
17174;DHT22;8702;48.130;-1.696;2022-07-19T01:24:13;32.40;53.80
17174;DHT22;8702;48.130;-1.696;2022-07-19T01:26:40;32.40;53.80
17174;DHT22;8702;48.130;-1.696;2022-07-19T01:29:07;32.40;53.80
17174;DHT22;8702;48.130;-1.696;2022-07-19T01:31:34;32.40;53.90
17174;DHT22;8702;48.130;-1.696;2022-07-19T01:34:01;32.40;53.90
17174;DHT22;8702;48.130;-1.696;2022-07-19T01:36:28;32.40;53.80
17174;DHT22;8702;48.130;-1.696;2022-07-19T01:38:56;32.30;54.00
17174;DHT22;8702;48.130;-1.696;2022-07-19T01:41:23;32.30;54.00
17174;DHT22;8702;48.130;-1.696;2022-07-19T01:43:50;32.30;54.10
17174;DHT22;8702;48.130;-1.696;2022-07-19T01:46:17;32.30;54.10
17174;DHT22;8702;48.130;-1.696;2022-07-19T01:48:44;32.30;54.30
17174;DHT22;8702;48.130;-1.696;2022-07-19T01:51:11;32.10;54.20
17174;DHT22;8702;48.130;-1.696;2022-07-19T01:53:38;32.10;54.20
17174;DHT22;8702;48.130;-1.696;2022-07-19T01:56:07;32.10;54.30
17174;DHT22;8702;48.130;-1.696;2022-07-19T01:58:34;32.10;54.40
17174;DHT22;8702;48.130;-1.696;2022-07-19T02:01:01;32.00;54.40
17174;DHT22;8702;48.130;-1.696;2022-07-19T02:03:28;31.90;54.40
17174;DHT22;8702;48.130;-1.696;2022-07-19T02:05:55;32.00;54.40
17174;DHT22;8702;48.130;-1.696;2022-07-19T02:08:22;32.00;54.40
17174;DHT22;8702;48.130;-1.696;2022-07-19T02:10:50;31.90;54.60
17174;DHT22;8702;48.130;-1.696;2022-07-19T02:13:19;32.00;54.40
17174;DHT22;8702;48.130;-1.696;2022-07-19T02:15:46;32.10;54.50
17174;DHT22;8702;48.130;-1.696;2022-07-19T02:18:13;32.10;54.40
17174;DHT22;8702;48.130;-1.696;2022-07-19T02:20:40;32.10;54.50
17174;DHT22;8702;48.130;-1.696;2022-07-19T02:23:07;32.00;54.60
17174;DHT22;8702;48.130;-1.696;2022-07-19T02:25:34;32.10;54.50
17174;DHT22;8702;48.130;-1.696;2022-07-19T02:28:01;32.10;54.60
17174;DHT22;8702;48.130;-1.696;2022-07-19T02:30:30;32.10;54.60
17174;DHT22;8702;48.130;-1.696;2022-07-19T02:32:57;32.00;54.60
17174;DHT22;8702;48.130;-1.696;2022-07-19T02:35:24;32.00;54.70
17174;DHT22;8702;48.130;-1.696;2022-07-19T02:37:51;31.90;54.90
17174;DHT22;8702;48.130;-1.696;2022-07-19T02:40:18;31.90;54.90
17174;DHT22;8702;48.130;-1.696;2022-07-19T02:42:45;31.80;55.00
17174;DHT22;8702;48.130;-1.696;2022-07-19T02:45:12;31.80;55.00
17174;DHT22;8702;48.130;-1.696;2022-07-19T02:47:40;31.80;55.10
17174;DHT22;8702;48.130;-1.696;2022-07-19T02:50:07;31.90;55.20
17174;DHT22;8702;48.130;-1.696;2022-07-19T02:52:35;31.80;55.20
17174;DHT22;8702;48.130;-1.696;2022-07-19T02:55:02;31.80;55.20
17174;DHT22;8702;48.130;-1.696;2022-07-19T02:57:29;31.70;55.30
17174;DHT22;8702;48.130;-1.696;2022-07-19T02:59:56;31.60;55.50
17174;DHT22;8702;48.130;-1.696;2022-07-19T03:02:23;31.70;55.60
17174;DHT22;8702;48.130;-1.696;2022-07-19T03:04:51;31.60;55.60
17174;DHT22;8702;48.130;-1.696;2022-07-19T03:07:18;31.60;55.70
17174;DHT22;8702;48.130;-1.696;2022-07-19T03:09:45;31.50;55.80
17174;DHT22;8702;48.130;-1.696;2022-07-19T03:12:13;31.50;55.90
17174;DHT22;8702;48.130;-1.696;2022-07-19T03:14:39;31.50;55.80
17174;DHT22;8702;48.130;-1.696;2022-07-19T03:17:06;31.50;56.00
17174;DHT22;8702;48.130;-1.696;2022-07-19T03:19:33;31.50;56.10
17174;DHT22;8702;48.130;-1.696;2022-07-19T03:22:02;31.40;56.10
17174;DHT22;8702;48.130;-1.696;2022-07-19T03:24:29;31.40;56.20
17174;DHT22;8702;48.130;-1.696;2022-07-19T03:26:56;31.30;56.40
17174;DHT22;8702;48.130;-1.696;2022-07-19T03:29:23;31.30;56.50
17174;DHT22;8702;48.130;-1.696;2022-07-19T03:31:50;31.20;56.70
17174;DHT22;8702;48.130;-1.696;2022-07-19T03:34:17;31.20;56.70
17174;DHT22;8702;48.130;-1.696;2022-07-19T03:36:44;31.30;56.60
17174;DHT22;8702;48.130;-1.696;2022-07-19T03:39:12;31.20;56.60
17174;DHT22;8702;48.130;-1.696;2022-07-19T03:41:39;31.20;56.80
17174;DHT22;8702;48.130;-1.696;2022-07-19T03:44:06;31.20;56.80
17174;DHT22;8702;48.130;-1.696;2022-07-19T03:46:33;31.20;56.90
17174;DHT22;8702;48.130;-1.696;2022-07-19T03:49:00;31.20;56.90
17174;DHT22;8702;48.130;-1.696;2022-07-19T03:51:27;31.20;57.00
17174;DHT22;8702;48.130;-1.696;2022-07-19T03:53:54;31.10;57.10
17174;DHT22;8702;48.130;-1.696;2022-07-19T03:56:22;31.00;57.10
17174;DHT22;8702;48.130;-1.696;2022-07-19T03:58:49;31.00;57.20
17174;DHT22;8702;48.130;-1.696;2022-07-19T04:01:16;31.10;57.30
17174;DHT22;8702;48.130;-1.696;2022-07-19T04:03:44;31.00;57.40
17174;DHT22;8702;48.130;-1.696;2022-07-19T04:06:11;30.90;57.40
17174;DHT22;8702;48.130;-1.696;2022-07-19T04:08:38;30.90;57.60
17174;DHT22;8702;48.130;-1.696;2022-07-19T04:11:05;30.90;57.50
17174;DHT22;8702;48.130;-1.696;2022-07-19T04:13:35;30.90;57.80
17174;DHT22;8702;48.130;-1.696;2022-07-19T04:16:03;30.80;57.80
17174;DHT22;8702;48.130;-1.696;2022-07-19T04:18:30;30.80;57.80
17174;DHT22;8702;48.130;-1.696;2022-07-19T04:20:57;30.80;58.00
17174;DHT22;8702;48.130;-1.696;2022-07-19T04:23:24;30.70;58.10
17174;DHT22;8702;48.130;-1.696;2022-07-19T04:25:51;30.70;58.10
17174;DHT22;8702;48.130;-1.696;2022-07-19T04:28:18;30.70;58.30
17174;DHT22;8702;48.130;-1.696;2022-07-19T04:30:47;30.70;58.30
17174;DHT22;8702;48.130;-1.696;2022-07-19T04:33:14;30.70;58.50
17174;DHT22;8702;48.130;-1.696;2022-07-19T04:35:41;30.70;58.30
17174;DHT22;8702;48.130;-1.696;2022-07-19T04:38:08;30.70;58.60
17174;DHT22;8702;48.130;-1.696;2022-07-19T04:40:36;30.60;58.60
17174;DHT22;8702;48.130;-1.696;2022-07-19T04:43:03;30.50;58.60
17174;DHT22;8702;48.130;-1.696;2022-07-19T04:45:30;30.50;58.70
17174;DHT22;8702;48.130;-1.696;2022-07-19T04:47:59;30.50;59.60
17174;DHT22;8702;48.130;-1.696;2022-07-19T04:50:26;30.40;59.20
17174;DHT22;8702;48.130;-1.696;2022-07-19T04:52:52;30.30;59.10
17174;DHT22;8702;48.130;-1.696;2022-07-19T04:55:19;30.40;59.30
17174;DHT22;8702;48.130;-1.696;2022-07-19T04:57:46;30.40;59.30
17174;DHT22;8702;48.130;-1.696;2022-07-19T05:00:13;30.30;59.40
17174;DHT22;8702;48.130;-1.696;2022-07-19T05:02:41;30.40;59.40
17174;DHT22;8702;48.130;-1.696;2022-07-19T05:05:09;30.40;59.50
17174;DHT22;8702;48.130;-1.696;2022-07-19T05:07:37;30.30;59.70
17174;DHT22;8702;48.130;-1.696;2022-07-19T05:10:04;30.30;59.60
17174;DHT22;8702;48.130;-1.696;2022-07-19T05:12:31;30.20;60.00
17174;DHT22;8702;48.130;-1.696;2022-07-19T05:14:59;30.20;59.90
17174;DHT22;8702;48.130;-1.696;2022-07-19T05:17:26;30.10;60.20
17174;DHT22;8702;48.130;-1.696;2022-07-19T05:19:53;30.10;60.20
17174;DHT22;8702;48.130;-1.696;2022-07-19T05:22:21;30.00;60.50
17174;DHT22;8702;48.130;-1.696;2022-07-19T05:24:50;30.00;60.50
17174;DHT22;8702;48.130;-1.696;2022-07-19T05:27:18;30.00;60.60
17174;DHT22;8702;48.130;-1.696;2022-07-19T05:29:45;30.00;60.60
17174;DHT22;8702;48.130;-1.696;2022-07-19T05:32:12;30.00;60.80
17174;DHT22;8702;48.130;-1.696;2022-07-19T05:34:39;30.00;60.90
17174;DHT22;8702;48.130;-1.696;2022-07-19T05:37:06;30.00;61.10
17174;DHT22;8702;48.130;-1.696;2022-07-19T05:39:34;30.00;61.00
17174;DHT22;8702;48.130;-1.696;2022-07-19T05:42:01;30.10;61.00
17174;DHT22;8702;48.130;-1.696;2022-07-19T05:44:28;30.10;61.30
17174;DHT22;8702;48.130;-1.696;2022-07-19T05:46:55;30.10;61.00
17174;DHT22;8702;48.130;-1.696;2022-07-19T05:49:22;30.20;61.10
17174;DHT22;8702;48.130;-1.696;2022-07-19T05:51:49;30.20;61.10
17174;DHT22;8702;48.130;-1.696;2022-07-19T05:54:16;30.20;61.20
17174;DHT22;8702;48.130;-1.696;2022-07-19T05:56:45;30.20;61.40
17174;DHT22;8702;48.130;-1.696;2022-07-19T05:59:12;30.20;61.60
17174;DHT22;8702;48.130;-1.696;2022-07-19T06:01:39;30.20;61.40
17174;DHT22;8702;48.130;-1.696;2022-07-19T06:04:06;30.20;61.50
17174;DHT22;8702;48.130;-1.696;2022-07-19T06:06:33;30.30;61.60
17174;DHT22;8702;48.130;-1.696;2022-07-19T06:09:02;30.30;61.60
17174;DHT22;8702;48.130;-1.696;2022-07-19T06:11:31;30.30;61.80
17174;DHT22;8702;48.130;-1.696;2022-07-19T06:13:59;30.30;61.90
17174;DHT22;8702;48.130;-1.696;2022-07-19T06:16:26;30.30;62.10
17174;DHT22;8702;48.130;-1.696;2022-07-19T06:18:53;30.30;61.90
17174;DHT22;8702;48.130;-1.696;2022-07-19T06:21:21;30.30;62.20
17174;DHT22;8702;48.130;-1.696;2022-07-19T06:23:48;30.30;62.20
17174;DHT22;8702;48.130;-1.696;2022-07-19T06:26:16;30.40;62.30
17174;DHT22;8702;48.130;-1.696;2022-07-19T06:28:43;30.40;62.30
17174;DHT22;8702;48.130;-1.696;2022-07-19T06:31:12;30.40;62.40
17174;DHT22;8702;48.130;-1.696;2022-07-19T06:33:39;30.40;62.70
17174;DHT22;8702;48.130;-1.696;2022-07-19T06:36:07;30.40;62.70
17174;DHT22;8702;48.130;-1.696;2022-07-19T06:38:35;30.40;62.90
17174;DHT22;8702;48.130;-1.696;2022-07-19T06:41:02;30.50;62.90
17174;DHT22;8702;48.130;-1.696;2022-07-19T06:43:29;30.40;63.20
17174;DHT22;8702;48.130;-1.696;2022-07-19T06:45:56;30.50;63.20
17174;DHT22;8702;48.130;-1.696;2022-07-19T06:48:24;30.40;63.40
17174;DHT22;8702;48.130;-1.696;2022-07-19T06:50:52;30.50;63.50
17174;DHT22;8702;48.130;-1.696;2022-07-19T06:53:19;30.50;63.40
17174;DHT22;8702;48.130;-1.696;2022-07-19T06:55:46;30.50;63.50
17174;DHT22;8702;48.130;-1.696;2022-07-19T06:58:13;30.60;63.60
17174;DHT22;8702;48.130;-1.696;2022-07-19T07:00:40;30.70;63.60
17174;DHT22;8702;48.130;-1.696;2022-07-19T07:03:07;30.70;63.80
17174;DHT22;8702;48.130;-1.696;2022-07-19T07:05:36;30.60;63.90
17174;DHT22;8702;48.130;-1.696;2022-07-19T07:08:03;30.60;64.00
17174;DHT22;8702;48.130;-1.696;2022-07-19T07:10:30;30.50;64.10
17174;DHT22;8702;48.130;-1.696;2022-07-19T07:12:57;30.60;64.30
17174;DHT22;8702;48.130;-1.696;2022-07-19T07:15:24;30.70;64.20
17174;DHT22;8702;48.130;-1.696;2022-07-19T07:17:51;30.70;64.10
17174;DHT22;8702;48.130;-1.696;2022-07-19T07:20:18;30.70;64.40
17174;DHT22;8702;48.130;-1.696;2022-07-19T07:22:47;30.80;64.60
17174;DHT22;8702;48.130;-1.696;2022-07-19T07:25:13;30.70;64.80
17174;DHT22;8702;48.130;-1.696;2022-07-19T07:27:40;30.70;65.60
17174;DHT22;8702;48.130;-1.696;2022-07-19T07:30:08;30.70;65.30
17174;DHT22;8702;48.130;-1.696;2022-07-19T07:32:36;30.50;65.90
17174;DHT22;8702;48.130;-1.696;2022-07-19T07:35:03;30.60;66.00
17174;DHT22;8702;48.130;-1.696;2022-07-19T07:37:30;30.60;66.20
17174;DHT22;8702;48.130;-1.696;2022-07-19T07:39:59;30.60;66.60
17174;DHT22;8702;48.130;-1.696;2022-07-19T07:42:26;30.60;67.10
17174;DHT22;8702;48.130;-1.696;2022-07-19T07:44:53;30.60;66.90
17174;DHT22;8702;48.130;-1.696;2022-07-19T07:47:20;30.60;67.50
17174;DHT22;8702;48.130;-1.696;2022-07-19T07:49:47;30.70;67.60
17174;DHT22;8702;48.130;-1.696;2022-07-19T07:52:16;30.70;67.70
17174;DHT22;8702;48.130;-1.696;2022-07-19T07:54:43;30.70;68.10
17174;DHT22;8702;48.130;-1.696;2022-07-19T07:57:11;30.70;68.40
17174;DHT22;8702;48.130;-1.696;2022-07-19T07:59:38;30.60;68.60
17174;DHT22;8702;48.130;-1.696;2022-07-19T08:02:05;30.40;68.60
17174;DHT22;8702;48.130;-1.696;2022-07-19T08:04:32;30.50;68.40
17174;DHT22;8702;48.130;-1.696;2022-07-19T08:06:59;30.60;68.80
17174;DHT22;8702;48.130;-1.696;2022-07-19T08:09:26;30.50;69.20
17174;DHT22;8702;48.130;-1.696;2022-07-19T08:11:53;30.30;69.90
17174;DHT22;8702;48.130;-1.696;2022-07-19T08:14:21;30.20;70.00
17174;DHT22;8702;48.130;-1.696;2022-07-19T08:16:48;30.40;70.00
17174;DHT22;8702;48.130;-1.696;2022-07-19T08:19:15;30.50;70.20
17174;DHT22;8702;48.130;-1.696;2022-07-19T08:21:42;30.60;70.10
17174;DHT22;8702;48.130;-1.696;2022-07-19T08:24:09;30.70;70.10
17174;DHT22;8702;48.130;-1.696;2022-07-19T08:26:36;30.70;70.10
17174;DHT22;8702;48.130;-1.696;2022-07-19T08:29:03;30.70;70.20
17174;DHT22;8702;48.130;-1.696;2022-07-19T08:31:31;30.80;70.60
17174;DHT22;8702;48.130;-1.696;2022-07-19T08:33:58;30.80;71.10
17174;DHT22;8702;48.130;-1.696;2022-07-19T08:36:26;30.90;71.70
17174;DHT22;8702;48.130;-1.696;2022-07-19T08:38:52;30.90;72.40
17174;DHT22;8702;48.130;-1.696;2022-07-19T08:41:20;30.80;72.50
17174;DHT22;8702;48.130;-1.696;2022-07-19T08:43:48;30.80;72.70
17174;DHT22;8702;48.130;-1.696;2022-07-19T08:46:19;30.80;72.90
17174;DHT22;8702;48.130;-1.696;2022-07-19T08:48:48;30.90;73.90
17174;DHT22;8702;48.130;-1.696;2022-07-19T08:51:18;30.70;74.80
17174;DHT22;8702;48.130;-1.696;2022-07-19T08:53:45;30.80;75.50
17174;DHT22;8702;48.130;-1.696;2022-07-19T08:56:12;30.90;75.20
17174;DHT22;8702;48.130;-1.696;2022-07-19T08:58:56;31.00;75.70
17174;DHT22;8702;48.130;-1.696;2022-07-19T09:01:24;31.00;75.80
17174;DHT22;8702;48.130;-1.696;2022-07-19T09:04:10;31.00;76.40
17174;DHT22;8702;48.130;-1.696;2022-07-19T09:06:38;30.90;77.10
17174;DHT22;8702;48.130;-1.696;2022-07-19T09:09:06;30.90;77.30
17174;DHT22;8702;48.130;-1.696;2022-07-19T09:11:33;31.00;77.50
17174;DHT22;8702;48.130;-1.696;2022-07-19T09:14:07;31.00;77.80
17174;DHT22;8702;48.130;-1.696;2022-07-19T09:16:58;30.90;78.60
17174;DHT22;8702;48.130;-1.696;2022-07-19T09:19:31;30.70;78.90
17174;DHT22;8702;48.130;-1.696;2022-07-19T09:22:00;30.60;79.30
17174;DHT22;8702;48.130;-1.696;2022-07-19T09:24:30;30.70;79.30
17174;DHT22;8702;48.130;-1.696;2022-07-19T09:26:59;30.90;79.10
17174;DHT22;8702;48.130;-1.696;2022-07-19T09:29:29;30.90;79.40
17174;DHT22;8702;48.130;-1.696;2022-07-19T09:32:15;31.00;79.20
17174;DHT22;8702;48.130;-1.696;2022-07-19T09:34:50;31.20;79.20
17174;DHT22;8702;48.130;-1.696;2022-07-19T09:37:19;31.00;79.90
17174;DHT22;8702;48.130;-1.696;2022-07-19T09:39:48;30.70;79.90
17174;DHT22;8702;48.130;-1.696;2022-07-19T09:42:16;30.60;80.70
17174;DHT22;8702;48.130;-1.696;2022-07-19T09:44:44;30.40;81.30
17174;DHT22;8702;48.130;-1.696;2022-07-19T09:47:12;30.30;81.90
17174;DHT22;8702;48.130;-1.696;2022-07-19T09:49:39;30.10;82.50
17174;DHT22;8702;48.130;-1.696;2022-07-19T09:52:08;29.90;83.30
17174;DHT22;8702;48.130;-1.696;2022-07-19T09:54:37;29.70;83.70
17174;DHT22;8702;48.130;-1.696;2022-07-19T09:57:05;29.70;83.60
17174;DHT22;8702;48.130;-1.696;2022-07-19T09:59:35;29.80;83.90
17174;DHT22;8702;48.130;-1.696;2022-07-19T10:02:03;29.80;84.30
17174;DHT22;8702;48.130;-1.696;2022-07-19T10:04:32;29.80;84.70
17174;DHT22;8702;48.130;-1.696;2022-07-19T10:07:01;29.90;84.40
17174;DHT22;8702;48.130;-1.696;2022-07-19T10:09:30;29.90;83.40
17174;DHT22;8702;48.130;-1.696;2022-07-19T10:11:57;30.00;83.60
17174;DHT22;8702;48.130;-1.696;2022-07-19T10:14:24;29.80;84.70
17174;DHT22;8702;48.130;-1.696;2022-07-19T10:17:16;29.80;84.80
17174;DHT22;8702;48.130;-1.696;2022-07-19T10:19:46;30.00;84.60
17174;DHT22;8702;48.130;-1.696;2022-07-19T10:22:15;30.20;84.60
17174;DHT22;8702;48.130;-1.696;2022-07-19T10:24:47;30.30;84.60
17174;DHT22;8702;48.130;-1.696;2022-07-19T10:27:17;30.10;84.80
17174;DHT22;8702;48.130;-1.696;2022-07-19T10:29:45;29.30;85.70
17174;DHT22;8702;48.130;-1.696;2022-07-19T10:32:13;28.50;87.30
17174;DHT22;8702;48.130;-1.696;2022-07-19T10:34:41;28.20;87.30
17174;DHT22;8702;48.130;-1.696;2022-07-19T10:37:09;27.90;88.60
17174;DHT22;8702;48.130;-1.696;2022-07-19T10:39:37;27.60;89.80
17174;DHT22;8702;48.130;-1.696;2022-07-19T10:42:17;27.10;91.10
17174;DHT22;8702;48.130;-1.696;2022-07-19T10:45:09;26.70;91.80
17174;DHT22;8702;48.130;-1.696;2022-07-19T10:48:08;26.40;92.10
17174;DHT22;8702;48.130;-1.696;2022-07-19T10:50:55;26.40;93.30
17174;DHT22;8702;48.130;-1.696;2022-07-19T10:54:02;26.30;93.40
17174;DHT22;8702;48.130;-1.696;2022-07-19T10:56:34;26.00;94.30
17174;DHT22;8702;48.130;-1.696;2022-07-19T10:59:05;25.80;94.10
17174;DHT22;8702;48.130;-1.696;2022-07-19T11:01:33;25.60;94.70
17174;DHT22;8702;48.130;-1.696;2022-07-19T11:04:30;25.60;94.60
17174;DHT22;8702;48.130;-1.696;2022-07-19T11:07:16;25.80;94.50
17174;DHT22;8702;48.130;-1.696;2022-07-19T11:09:45;25.90;95.00
17174;DHT22;8702;48.130;-1.696;2022-07-19T11:12:24;25.70;95.50
17174;DHT22;8702;48.130;-1.696;2022-07-19T11:14:53;25.50;95.70
17174;DHT22;8702;48.130;-1.696;2022-07-19T11:17:20;25.50;96.10
17174;DHT22;8702;48.130;-1.696;2022-07-19T11:19:57;25.20;96.70
17174;DHT22;8702;48.130;-1.696;2022-07-19T11:22:24;25.40;96.90
17174;DHT22;8702;48.130;-1.696;2022-07-19T11:24:51;25.80;96.70
17174;DHT22;8702;48.130;-1.696;2022-07-19T11:27:18;25.80;96.60
17174;DHT22;8702;48.130;-1.696;2022-07-19T11:29:53;25.90;96.20
17174;DHT22;8702;48.130;-1.696;2022-07-19T11:32:21;26.30;96.70
17174;DHT22;8702;48.130;-1.696;2022-07-19T11:34:53;26.50;96.50
17174;DHT22;8702;48.130;-1.696;2022-07-19T11:37:23;26.30;96.20
17174;DHT22;8702;48.130;-1.696;2022-07-19T11:39:51;26.30;96.30
17174;DHT22;8702;48.130;-1.696;2022-07-19T11:42:28;26.20;96.20
17174;DHT22;8702;48.130;-1.696;2022-07-19T11:44:56;26.40;96.00
17174;DHT22;8702;48.130;-1.696;2022-07-19T11:47:23;26.40;95.70
17174;DHT22;8702;48.130;-1.696;2022-07-19T11:49:50;26.40;95.80
17174;DHT22;8702;48.130;-1.696;2022-07-19T11:52:17;26.30;96.10
17174;DHT22;8702;48.130;-1.696;2022-07-19T11:54:58;26.30;95.90
17174;DHT22;8702;48.130;-1.696;2022-07-19T11:57:26;26.40;95.80
17174;DHT22;8702;48.130;-1.696;2022-07-19T11:59:53;26.40;95.60
17174;DHT22;8702;48.130;-1.696;2022-07-19T12:02:22;26.30;95.70
17174;DHT22;8702;48.130;-1.696;2022-07-19T12:04:49;26.20;95.80
17174;DHT22;8702;48.130;-1.696;2022-07-19T12:07:17;26.30;95.70
17174;DHT22;8702;48.130;-1.696;2022-07-19T12:09:45;26.20;95.30
17174;DHT22;8702;48.130;-1.696;2022-07-19T12:12:13;26.40;95.30
17174;DHT22;8702;48.130;-1.696;2022-07-19T12:14:41;26.40;94.90
17174;DHT22;8702;48.130;-1.696;2022-07-19T12:17:10;26.50;94.90
17174;DHT22;8702;48.130;-1.696;2022-07-19T12:19:39;26.60;94.40
17174;DHT22;8702;48.130;-1.696;2022-07-19T12:22:07;26.40;94.40
17174;DHT22;8702;48.130;-1.696;2022-07-19T12:24:51;26.50;94.30
17174;DHT22;8702;48.130;-1.696;2022-07-19T12:27:18;26.50;94.30
17174;DHT22;8702;48.130;-1.696;2022-07-19T12:29:47;26.10;94.50
17174;DHT22;8702;48.130;-1.696;2022-07-19T12:32:25;26.20;94.60
17174;DHT22;8702;48.130;-1.696;2022-07-19T12:34:56;26.20;94.50
17174;DHT22;8702;48.130;-1.696;2022-07-19T12:37:25;26.20;94.00
17174;DHT22;8702;48.130;-1.696;2022-07-19T12:39:57;26.50;94.20
17174;DHT22;8702;48.130;-1.696;2022-07-19T12:42:24;26.60;94.10
17174;DHT22;8702;48.130;-1.696;2022-07-19T12:44:51;26.70;93.80
17174;DHT22;8702;48.130;-1.696;2022-07-19T12:47:18;26.80;93.40
17174;DHT22;8702;48.130;-1.696;2022-07-19T12:49:47;26.80;93.00
17174;DHT22;8702;48.130;-1.696;2022-07-19T12:52:16;26.80;93.20
17174;DHT22;8702;48.130;-1.696;2022-07-19T12:54:43;27.10;93.10
17174;DHT22;8702;48.130;-1.696;2022-07-19T12:57:10;27.40;92.80
17174;DHT22;8702;48.130;-1.696;2022-07-19T12:59:37;27.10;92.50
17174;DHT22;8702;48.130;-1.696;2022-07-19T13:02:10;27.10;92.50
17174;DHT22;8702;48.130;-1.696;2022-07-19T13:04:39;27.20;92.40
17174;DHT22;8702;48.130;-1.696;2022-07-19T13:07:07;27.20;92.30
17174;DHT22;8702;48.130;-1.696;2022-07-19T13:09:37;27.40;92.00
17174;DHT22;8702;48.130;-1.696;2022-07-19T13:12:06;27.60;91.60
17174;DHT22;8702;48.130;-1.696;2022-07-19T13:14:34;27.70;91.30
17174;DHT22;8702;48.130;-1.696;2022-07-19T13:17:01;27.80;91.40
17174;DHT22;8702;48.130;-1.696;2022-07-19T13:19:28;27.80;91.00
17174;DHT22;8702;48.130;-1.696;2022-07-19T13:21:56;27.80;90.60
17174;DHT22;8702;48.130;-1.696;2022-07-19T13:24:23;27.80;90.80
17174;DHT22;8702;48.130;-1.696;2022-07-19T13:26:52;27.70;90.50
17174;DHT22;8702;48.130;-1.696;2022-07-19T13:29:19;27.80;90.80
17174;DHT22;8702;48.130;-1.696;2022-07-19T13:31:46;28.00;90.30
17174;DHT22;8702;48.130;-1.696;2022-07-19T13:34:13;27.90;89.90
17174;DHT22;8702;48.130;-1.696;2022-07-19T13:36:40;28.00;90.10
17174;DHT22;8702;48.130;-1.696;2022-07-19T13:39:08;28.10;89.40
17174;DHT22;8702;48.130;-1.696;2022-07-19T13:41:36;28.20;89.70
17174;DHT22;8702;48.130;-1.696;2022-07-19T13:44:05;28.30;87.90
17174;DHT22;8702;48.130;-1.696;2022-07-19T13:46:32;28.40;87.40
17174;DHT22;8702;48.130;-1.696;2022-07-19T13:49:00;28.40;86.70
17174;DHT22;8702;48.130;-1.696;2022-07-19T13:51:27;28.30;86.80
17174;DHT22;8702;48.130;-1.696;2022-07-19T13:53:55;28.40;86.60
17174;DHT22;8702;48.130;-1.696;2022-07-19T13:56:22;28.50;86.50
17174;DHT22;8702;48.130;-1.696;2022-07-19T13:58:49;28.50;85.30
17174;DHT22;8702;48.130;-1.696;2022-07-19T14:01:18;28.40;85.60
17174;DHT22;8702;48.130;-1.696;2022-07-19T14:03:45;28.40;86.20
17174;DHT22;8702;48.130;-1.696;2022-07-19T14:06:14;28.50;85.10
17174;DHT22;8702;48.130;-1.696;2022-07-19T14:08:41;28.50;84.70
17174;DHT22;8702;48.130;-1.696;2022-07-19T14:11:08;28.60;84.80
17174;DHT22;8702;48.130;-1.696;2022-07-19T14:13:35;28.80;85.20
17174;DHT22;8702;48.130;-1.696;2022-07-19T14:16:03;29.10;83.40
17174;DHT22;8702;48.130;-1.696;2022-07-19T14:18:32;29.10;82.50
17174;DHT22;8702;48.130;-1.696;2022-07-19T14:20:59;29.20;82.70
17174;DHT22;8702;48.130;-1.696;2022-07-19T14:23:26;29.30;82.70
17174;DHT22;8702;48.130;-1.696;2022-07-19T14:25:53;29.20;82.80
17174;DHT22;8702;48.130;-1.696;2022-07-19T14:28:20;29.40;83.10
17174;DHT22;8702;48.130;-1.696;2022-07-19T14:30:47;29.60;82.70
17174;DHT22;8702;48.130;-1.696;2022-07-19T14:33:14;29.80;82.80
17174;DHT22;8702;48.130;-1.696;2022-07-19T14:35:43;29.90;81.30
17174;DHT22;8702;48.130;-1.696;2022-07-19T14:38:10;29.80;82.10
17174;DHT22;8702;48.130;-1.696;2022-07-19T14:40:37;30.00;81.90
17174;DHT22;8702;48.130;-1.696;2022-07-19T14:43:04;30.30;82.10
17174;DHT22;8702;48.130;-1.696;2022-07-19T14:45:32;30.40;80.30
17174;DHT22;8702;48.130;-1.696;2022-07-19T14:47:59;30.40;80.20
17174;DHT22;8702;48.130;-1.696;2022-07-19T14:50:26;30.30;79.40
17174;DHT22;8702;48.130;-1.696;2022-07-19T14:52:54;30.50;79.40
17174;DHT22;8702;48.130;-1.696;2022-07-19T14:55:22;30.70;79.00
17174;DHT22;8702;48.130;-1.696;2022-07-19T14:57:49;31.00;78.30
17174;DHT22;8702;48.130;-1.696;2022-07-19T15:00:16;31.10;76.70
17174;DHT22;8702;48.130;-1.696;2022-07-19T15:02:43;31.30;78.30
17174;DHT22;8702;48.130;-1.696;2022-07-19T15:05:10;31.30;75.80
17174;DHT22;8702;48.130;-1.696;2022-07-19T15:07:37;31.00;74.40
17174;DHT22;8702;48.130;-1.696;2022-07-19T15:10:07;31.00;74.60
17174;DHT22;8702;48.130;-1.696;2022-07-19T15:12:34;31.00;74.40
17174;DHT22;8702;48.130;-1.696;2022-07-19T15:15:01;31.00;74.70
17174;DHT22;8702;48.130;-1.696;2022-07-19T15:17:28;31.20;74.40
17174;DHT22;8702;48.130;-1.696;2022-07-19T15:19:55;31.30;73.20
17174;DHT22;8702;48.130;-1.696;2022-07-19T15:22:22;31.30;73.20
17174;DHT22;8702;48.130;-1.696;2022-07-19T15:24:49;31.30;73.60
17174;DHT22;8702;48.130;-1.696;2022-07-19T15:27:18;31.50;73.30
17174;DHT22;8702;48.130;-1.696;2022-07-19T15:29:45;31.60;72.80
17174;DHT22;8702;48.130;-1.696;2022-07-19T15:32:12;31.70;72.00
17174;DHT22;8702;48.130;-1.696;2022-07-19T15:34:40;32.00;72.30
17174;DHT22;8702;48.130;-1.696;2022-07-19T15:37:07;32.00;71.00